createdAt,value
2023-01-19T00:01:37.843Z,19.30
2023-01-19T00:04:06.524Z,24.60
2023-01-19T00:06:34.455Z,28.20
2023-01-19T00:09:03.000Z,25.80
2023-01-19T00:11:30.739Z,29.80
2023-01-19T00:13:58.775Z,29.70
2023-01-19T00:16:28.212Z,26.53
2023-01-19T00:18:56.132Z,25.50
2023-01-19T00:21:24.543Z,24.83
2023-01-19T00:23:52.818Z,27.73
2023-01-19T00:26:22.178Z,32.47
2023-01-19T00:28:50.268Z,37.43
2023-01-19T00:31:21.587Z,33.33
2023-01-19T00:33:52.769Z,35.07
2023-01-19T00:36:20.832Z,40.70
2023-01-19T00:38:48.673Z,33.77
2023-01-19T00:41:16.715Z,23.57
2023-01-19T00:43:44.882Z,31.17
2023-01-19T00:46:12.755Z,26.73
2023-01-19T00:48:40.618Z,32.73
2023-01-19T00:51:09.725Z,40.27
2023-01-19T00:53:37.509Z,37.13
2023-01-19T00:56:09.018Z,28.83
2023-01-19T00:58:38.019Z,26.77
2023-01-19T01:01:06.056Z,30.03
2023-01-19T01:03:33.931Z,25.40
2023-01-19T01:06:03.567Z,19.93
2023-01-19T01:08:33.300Z,28.30
2023-01-19T01:11:02.100Z,37.83
2023-01-19T01:13:30.344Z,28.13
2023-01-19T01:15:58.477Z,31.57
2023-01-19T01:18:26.411Z,25.40
2023-01-19T01:21:01.202Z,28.17
2023-01-19T01:23:29.305Z,45.03
2023-01-19T01:25:58.485Z,38.83
2023-01-19T01:28:27.040Z,32.10
2023-01-19T01:30:56.037Z,36.87
2023-01-19T01:33:40.624Z,34.03
2023-01-19T01:36:11.685Z,40.22
2023-01-19T01:38:40.821Z,32.60
2023-01-19T01:41:10.030Z,29.50
2023-01-19T01:43:48.080Z,44.57
2023-01-19T01:46:17.905Z,41.07
2023-01-19T01:48:54.839Z,41.87
2023-01-19T01:51:28.465Z,35.80
2023-01-19T01:54:14.033Z,43.97
2023-01-19T01:56:46.551Z,45.90
2023-01-19T01:59:25.928Z,37.17
2023-01-19T02:02:15.848Z,43.83
2023-01-19T02:04:49.087Z,34.57
2023-01-19T02:07:46.050Z,32.50
2023-01-19T02:10:32.445Z,31.17
2023-01-19T02:13:21.780Z,27.90
2023-01-19T02:15:52.908Z,25.30
2023-01-19T02:18:24.082Z,28.50
2023-01-19T02:21:05.779Z,30.70
2023-01-19T02:23:46.075Z,25.10
2023-01-19T02:26:19.353Z,22.57
2023-01-19T02:28:53.258Z,22.43
2023-01-19T02:31:21.338Z,39.43
2023-01-19T02:33:49.469Z,27.53
2023-01-19T02:36:23.080Z,40.07
2023-01-19T02:38:56.600Z,37.20
2023-01-19T02:41:34.213Z,32.93
2023-01-19T02:44:04.532Z,39.00
2023-01-19T02:46:33.321Z,42.93
2023-01-19T02:49:01.528Z,54.13
2023-01-19T02:51:29.476Z,44.03
2023-01-19T02:54:18.337Z,58.20
2023-01-19T02:57:12.930Z,85.93
2023-01-19T02:59:58.478Z,71.93
2023-01-19T03:02:43.106Z,71.05
2023-01-19T03:05:36.450Z,76.77
2023-01-19T03:08:16.003Z,83.97
2023-01-19T03:10:57.889Z,104.47
2023-01-19T03:13:37.236Z,88.73
2023-01-19T03:16:14.532Z,95.33
2023-01-19T03:18:49.549Z,90.23
2023-01-19T03:21:22.343Z,77.80
2023-01-19T03:23:55.255Z,62.47
2023-01-19T03:26:30.661Z,109.63
2023-01-19T03:29:03.404Z,130.00
2023-01-19T03:31:33.766Z,86.07
2023-01-19T03:34:08.084Z,127.60
2023-01-19T03:36:43.320Z,103.60
2023-01-19T03:39:15.115Z,89.95
2023-01-19T03:41:50.200Z,132.43
2023-01-19T03:44:18.504Z,101.15
2023-01-19T03:46:47.995Z,112.90
2023-01-19T03:49:16.734Z,71.93
2023-01-19T03:51:45.210Z,93.57
2023-01-19T03:54:12.976Z,68.43
2023-01-19T03:56:40.871Z,92.80
2023-01-19T03:59:10.081Z,115.07
2023-01-19T04:01:38.002Z,111.57
2023-01-19T04:04:06.027Z,98.90
2023-01-19T04:06:33.794Z,111.50
2023-01-19T04:09:01.667Z,102.07
2023-01-19T04:11:29.879Z,91.53
2023-01-19T04:13:57.904Z,77.50
2023-01-19T04:16:27.291Z,88.70
2023-01-19T04:18:55.632Z,115.83
2023-01-19T04:21:23.388Z,94.80
2023-01-19T04:23:53.067Z,107.73
2023-01-19T04:26:21.115Z,126.10
2023-01-19T04:28:48.949Z,157.63
2023-01-19T04:31:16.824Z,115.33
2023-01-19T04:33:45.957Z,107.43
2023-01-19T04:36:13.709Z,123.37
2023-01-19T04:38:41.727Z,71.20
2023-01-19T04:41:09.853Z,100.43
2023-01-19T04:43:37.766Z,99.63
2023-01-19T04:46:05.785Z,82.57
2023-01-19T04:48:33.842Z,95.67
2023-01-19T04:51:03.335Z,88.27
2023-01-19T04:53:31.189Z,82.57
2023-01-19T04:56:00.625Z,113.37
2023-01-19T04:58:28.361Z,116.40
2023-01-19T05:00:56.215Z,76.93
2023-01-19T05:03:25.685Z,101.33
2023-01-19T05:05:54.391Z,54.63
2023-01-19T05:08:24.493Z,87.50
2023-01-19T05:10:52.318Z,95.87
2023-01-19T05:13:20.257Z,111.13
2023-01-19T05:15:48.068Z,90.73
2023-01-19T05:18:16.103Z,94.57
2023-01-19T05:20:43.838Z,69.67
2023-01-19T05:23:11.781Z,132.93
2023-01-19T05:25:42.910Z,87.80
2023-01-19T05:28:11.367Z,68.10
2023-01-19T05:30:39.395Z,110.47
2023-01-19T05:33:07.142Z,43.93
2023-01-19T05:35:36.649Z,49.60
2023-01-19T05:38:04.593Z,34.30
2023-01-19T05:40:32.455Z,32.73
2023-01-19T05:43:05.118Z,19.63
2023-01-19T05:45:34.110Z,38.73
2023-01-19T05:48:02.295Z,36.30
2023-01-19T05:50:30.151Z,31.90
2023-01-19T05:52:59.064Z,40.50
2023-01-19T05:55:28.840Z,48.63
2023-01-19T05:57:56.563Z,44.87
2023-01-19T06:00:27.466Z,50.40
2023-01-19T06:02:55.334Z,27.17
2023-01-19T06:05:23.060Z,33.07
2023-01-19T06:07:50.768Z,69.77
2023-01-19T06:10:18.692Z,32.40
2023-01-19T06:12:46.438Z,48.43
2023-01-19T06:15:15.321Z,45.00
2023-01-19T06:17:44.569Z,35.97
2023-01-19T06:20:15.973Z,40.10
2023-01-19T06:22:43.949Z,43.33
2023-01-19T06:25:11.939Z,46.03
2023-01-19T06:27:45.204Z,57.20
2023-01-19T06:30:13.964Z,62.07
2023-01-19T06:32:41.869Z,37.53
2023-01-19T06:35:12.174Z,28.33
2023-01-19T06:37:41.508Z,71.63
2023-01-19T06:40:13.618Z,21.00
2023-01-19T06:42:42.641Z,30.17
2023-01-19T06:45:11.201Z,18.63
2023-01-19T06:47:39.099Z,30.77
2023-01-19T06:50:08.237Z,33.43
2023-01-19T06:52:42.293Z,31.20
2023-01-19T06:55:11.148Z,29.70
2023-01-19T06:57:40.459Z,25.93
2023-01-19T07:00:11.721Z,20.63
2023-01-19T07:02:42.889Z,27.90
2023-01-19T07:05:14.209Z,28.03
2023-01-19T07:07:44.830Z,20.30
2023-01-19T07:10:15.689Z,23.20
2023-01-19T07:12:46.396Z,26.90
2023-01-19T07:15:15.426Z,23.70
2023-01-19T07:17:43.586Z,27.63
2023-01-19T07:20:14.296Z,22.93
2023-01-19T07:22:45.649Z,25.13
2023-01-19T07:25:14.676Z,15.77
2023-01-19T07:27:42.792Z,9.00
2023-01-19T07:30:11.756Z,20.40
2023-01-19T07:32:39.524Z,19.50
2023-01-19T07:35:08.303Z,23.60
2023-01-19T07:37:37.529Z,25.83
2023-01-19T07:40:08.854Z,24.57
2023-01-19T07:42:36.775Z,20.13
2023-01-19T07:45:05.903Z,25.00
2023-01-19T07:47:35.054Z,22.07
2023-01-19T07:50:03.345Z,28.20
2023-01-19T07:52:31.201Z,24.80
2023-01-19T07:54:59.211Z,28.47
2023-01-19T07:57:28.602Z,25.30
2023-01-19T07:59:56.670Z,23.83
2023-01-19T08:02:24.537Z,19.97
2023-01-19T08:04:52.440Z,27.63
2023-01-19T08:07:20.360Z,28.27
2023-01-19T08:09:48.179Z,24.67
2023-01-19T08:12:17.079Z,24.33
2023-01-19T08:14:46.168Z,21.43
2023-01-19T08:17:14.078Z,33.67
2023-01-19T08:19:42.975Z,31.37
2023-01-19T08:22:10.951Z,21.03
2023-01-19T08:24:38.674Z,26.13
2023-01-19T08:27:06.992Z,30.87
2023-01-19T08:29:35.000Z,23.80
2023-01-19T08:32:06.668Z,30.70
2023-01-19T08:34:34.632Z,32.40
2023-01-19T08:37:02.427Z,30.20
2023-01-19T08:39:30.426Z,28.90
2023-01-19T08:41:59.618Z,33.63
2023-01-19T08:44:27.745Z,27.17
2023-01-19T08:46:55.723Z,29.63
2023-01-19T08:49:24.964Z,32.63
2023-01-19T08:51:52.753Z,31.93
2023-01-19T08:54:21.727Z,29.70
2023-01-19T08:56:49.553Z,28.80
2023-01-19T08:59:17.868Z,26.47
2023-01-19T09:01:45.782Z,28.83
2023-01-19T09:04:13.697Z,23.00
2023-01-19T09:06:42.841Z,26.10
2023-01-19T09:09:10.676Z,27.80
2023-01-19T09:11:38.458Z,26.37
2023-01-19T09:14:06.509Z,30.70
2023-01-19T09:16:34.374Z,23.73
2023-01-19T09:19:02.302Z,36.47
2023-01-19T09:21:30.160Z,25.17
2023-01-19T09:23:59.348Z,24.07
2023-01-19T09:26:27.207Z,25.60
2023-01-19T09:28:54.987Z,29.77
2023-01-19T09:31:23.644Z,18.40
2023-01-19T09:33:51.581Z,30.30
2023-01-19T09:36:19.346Z,30.43
2023-01-19T09:38:47.212Z,25.47
2023-01-19T09:41:22.168Z,26.50
2023-01-19T09:43:57.862Z,27.42
2023-01-19T09:46:36.968Z,21.08
2023-01-19T09:49:13.680Z,22.27
2023-01-19T09:51:46.968Z,27.53
2023-01-19T09:54:18.152Z,26.43
2023-01-19T09:56:52.362Z,25.23
2023-01-19T09:59:25.137Z,25.07
2023-01-19T10:02:19.309Z,31.30
2023-01-19T10:04:59.931Z,23.60
2023-01-19T10:07:44.938Z,31.43
2023-01-19T10:10:20.991Z,28.70
2023-01-19T10:13:21.534Z,27.57
2023-01-19T10:16:03.911Z,23.93
2023-01-19T10:18:47.474Z,25.17
2023-01-19T10:21:21.553Z,28.10
2023-01-19T10:23:54.610Z,21.20
2023-01-19T10:26:26.391Z,21.83
2023-01-19T10:29:02.546Z,20.07
2023-01-19T10:31:35.779Z,24.23
2023-01-19T10:34:03.951Z,24.03
2023-01-19T10:36:37.505Z,23.83
2023-01-19T10:39:06.940Z,18.10
2023-01-19T10:41:42.187Z,18.33
2023-01-19T10:44:12.027Z,26.52
2023-01-19T10:46:44.904Z,23.03
2023-01-19T10:49:27.641Z,24.47
2023-01-19T10:51:58.229Z,27.43
2023-01-19T10:54:29.521Z,26.27
2023-01-19T10:57:01.231Z,28.07
2023-01-19T10:59:37.332Z,26.87
2023-01-19T11:02:19.337Z,22.67
2023-01-19T11:04:50.188Z,22.77
2023-01-19T11:07:22.659Z,26.50
2023-01-19T11:10:22.963Z,24.70
2023-01-19T11:13:03.675Z,30.47
2023-01-19T11:15:40.868Z,29.37
2023-01-19T11:18:21.431Z,31.60
2023-01-19T11:20:53.854Z,41.47
2023-01-19T11:23:28.151Z,34.50
2023-01-19T11:26:00.494Z,29.30
2023-01-19T11:28:33.959Z,31.40
2023-01-19T11:31:18.891Z,27.57
2023-01-19T11:33:51.692Z,30.13
2023-01-19T11:36:22.818Z,28.77
2023-01-19T11:38:53.514Z,31.77
2023-01-19T11:41:26.896Z,31.73
2023-01-19T11:44:04.804Z,28.30
2023-01-19T11:46:40.485Z,36.97
2023-01-19T11:54:29.527Z,30.80
2023-01-19T11:57:00.539Z,32.03
2023-01-19T11:59:28.775Z,31.07
2023-01-19T12:02:02.320Z,28.77
2023-01-19T12:04:36.325Z,24.90
2023-01-19T12:07:12.277Z,19.73
2023-01-19T12:09:47.397Z,21.13
2023-01-19T12:12:28.280Z,25.30
2023-01-19T12:15:05.114Z,20.90
2023-01-19T12:17:40.863Z,25.20
2023-01-19T12:20:24.750Z,17.67
2023-01-19T12:23:09.170Z,21.03
2023-01-19T12:25:58.185Z,21.13
2023-01-19T12:28:32.649Z,19.87
2023-01-19T12:31:01.961Z,18.23
2023-01-19T12:33:37.719Z,16.03
2023-01-19T12:39:11.352Z,19.43
2023-01-19T12:41:41.077Z,14.27
2023-01-19T12:44:30.416Z,15.83
2023-01-19T12:47:05.194Z,16.20
2023-01-19T12:49:43.991Z,17.55
2023-01-19T12:52:31.404Z,15.90
2023-01-19T12:55:17.154Z,15.27
2023-01-19T12:57:55.608Z,17.38
2023-01-19T13:00:34.417Z,13.67
2023-01-19T13:03:25.253Z,16.50
2023-01-19T13:05:56.439Z,16.73
2023-01-19T13:08:30.338Z,15.73
2023-01-19T13:11:19.594Z,15.80
2023-01-19T13:14:34.212Z,17.60
2023-01-19T13:17:28.033Z,16.80
2023-01-19T13:20:22.007Z,18.83
2023-01-19T13:23:21.684Z,15.93
2023-01-19T13:25:54.772Z,17.43
2023-01-19T13:28:32.127Z,17.03
2023-01-19T13:31:02.552Z,19.03
2023-01-19T13:33:48.012Z,22.00
2023-01-19T13:36:23.334Z,18.63
2023-01-19T13:38:53.633Z,22.77
2023-01-19T13:41:25.175Z,24.40
2023-01-19T13:44:01.697Z,21.63
2023-01-19T13:46:31.764Z,33.00
2023-01-19T13:49:05.486Z,38.77
2023-01-19T13:51:33.381Z,38.20
2023-01-19T13:54:02.750Z,28.93
2023-01-19T13:56:30.841Z,18.73
2023-01-19T13:59:02.187Z,20.60
2023-01-19T14:01:31.266Z,21.43
2023-01-19T14:04:00.005Z,20.43
2023-01-19T14:06:40.455Z,28.20
2023-01-19T14:09:16.879Z,23.33
2023-01-19T14:11:47.700Z,21.30
2023-01-19T14:14:25.794Z,22.47
2023-01-19T14:16:54.355Z,27.13
2023-01-19T14:19:22.290Z,21.43
2023-01-19T14:22:01.138Z,25.07
2023-01-19T14:24:33.099Z,19.73
2023-01-19T14:27:18.744Z,23.80
2023-01-19T14:29:50.392Z,22.00
2023-01-19T14:32:21.766Z,21.40
2023-01-19T14:34:53.642Z,24.80
2023-01-19T14:37:26.489Z,23.33
2023-01-19T14:40:01.831Z,22.93
2023-01-19T14:42:34.742Z,20.45
2023-01-19T14:45:12.415Z,25.60
2023-01-19T14:47:44.355Z,23.00
2023-01-19T14:50:23.844Z,28.73
2023-01-19T14:52:59.443Z,23.13
2023-01-19T14:55:39.630Z,27.85
2023-01-19T14:58:12.022Z,24.87
2023-01-19T15:00:40.287Z,27.30
2023-01-19T15:03:09.919Z,41.37
2023-01-19T15:05:39.422Z,38.83
2023-01-19T15:08:08.505Z,40.60
2023-01-19T15:10:37.809Z,57.77
2023-01-19T15:13:05.864Z,58.20
2023-01-19T15:15:35.686Z,52.37
2023-01-19T15:18:06.811Z,46.03
2023-01-19T15:20:34.788Z,33.50
2023-01-19T15:23:02.676Z,59.67
2023-01-19T15:25:31.465Z,76.87
2023-01-19T15:28:02.087Z,50.20
2023-01-19T15:30:33.975Z,41.53
2023-01-19T15:33:02.350Z,44.07
2023-01-19T15:35:30.630Z,41.57
2023-01-19T15:37:58.631Z,35.43
2023-01-19T15:40:26.656Z,40.90
2023-01-19T15:42:54.534Z,47.93
2023-01-19T15:45:34.430Z,46.83
2023-01-19T15:48:05.392Z,48.33
2023-01-19T15:50:35.833Z,39.23
2023-01-19T15:53:03.898Z,58.17
2023-01-19T15:55:31.977Z,57.60
2023-01-19T15:58:02.775Z,65.77
2023-01-19T16:00:34.189Z,63.67
2023-01-19T16:03:03.417Z,94.93
2023-01-19T16:05:42.476Z,54.63
2023-01-19T16:08:12.017Z,40.73
2023-01-19T16:10:40.366Z,42.23
2023-01-19T16:13:09.220Z,44.70
2023-01-19T16:15:53.666Z,41.27
2023-01-19T16:18:21.721Z,41.37
2023-01-19T16:20:49.584Z,42.20
2023-01-19T16:23:17.400Z,43.70
2023-01-19T16:25:55.272Z,46.13
2023-01-19T16:28:23.649Z,51.93
2023-01-19T16:30:53.294Z,49.33
2023-01-19T16:33:21.280Z,48.37
2023-01-19T16:35:49.497Z,45.23
2023-01-19T16:38:17.484Z,40.43
2023-01-19T16:40:46.577Z,41.53
2023-01-19T16:43:15.241Z,44.83
2023-01-19T16:45:59.557Z,49.20
2023-01-19T16:48:28.694Z,50.70
2023-01-19T16:51:03.196Z,47.13
2023-01-19T16:53:37.185Z,47.60
2023-01-19T16:56:06.664Z,56.63
2023-01-19T16:58:38.195Z,51.50
2023-01-19T17:01:14.722Z,53.13
2023-01-19T17:03:43.267Z,60.23
2023-01-19T17:06:13.901Z,57.87
2023-01-19T17:08:41.935Z,57.67
2023-01-19T17:11:13.501Z,57.83
2023-01-19T17:13:41.464Z,55.03
2023-01-19T17:16:11.078Z,60.57
2023-01-19T17:18:39.066Z,95.30
2023-01-19T17:21:10.142Z,88.97
2023-01-19T17:23:43.529Z,54.73
2023-01-19T17:26:11.688Z,57.67
2023-01-19T17:28:40.344Z,45.67
2023-01-19T17:31:12.198Z,45.67
2023-01-19T17:33:42.900Z,51.07
2023-01-19T17:36:14.859Z,49.20
2023-01-19T17:38:43.292Z,48.00
2023-01-19T17:41:16.505Z,46.67
2023-01-19T17:43:45.710Z,50.37
2023-01-19T17:46:14.940Z,48.23
2023-01-19T17:48:42.779Z,39.97
2023-01-19T17:51:13.081Z,35.57
2023-01-19T17:53:42.409Z,40.57
2023-01-19T17:56:13.930Z,46.23
2023-01-19T17:58:42.823Z,41.57
2023-01-19T18:01:13.709Z,37.67
2023-01-19T18:03:43.716Z,42.57
2023-01-19T18:06:11.991Z,46.50
2023-01-19T18:08:42.753Z,48.53
2023-01-19T18:11:11.887Z,45.03
2023-01-19T18:13:43.339Z,42.97
2023-01-19T18:16:14.871Z,33.13
2023-01-19T18:18:44.370Z,38.57
2023-01-19T18:21:14.967Z,49.10
2023-01-19T18:23:43.457Z,43.93
2023-01-19T18:26:37.954Z,38.20
2023-01-19T18:29:05.791Z,44.43
2023-01-19T18:31:33.655Z,59.33
2023-01-19T18:34:01.575Z,59.60
2023-01-19T18:36:31.958Z,68.90
2023-01-19T18:39:01.145Z,69.70
2023-01-19T18:41:29.860Z,64.50
2023-01-19T18:43:59.696Z,76.77
2023-01-19T18:46:27.727Z,67.40
2023-01-19T18:48:55.807Z,59.90
2023-01-19T18:51:23.676Z,40.67
2023-01-19T18:53:51.767Z,45.67
2023-01-19T18:56:19.832Z,36.93
2023-01-19T18:58:47.923Z,34.27
2023-01-19T19:01:24.061Z,31.80
2023-01-19T19:03:52.763Z,38.17
2023-01-19T19:06:22.229Z,32.93
2023-01-19T19:08:52.098Z,37.67
2023-01-19T19:11:22.478Z,39.80
2023-01-19T19:13:53.029Z,37.63
2023-01-19T19:16:23.104Z,39.47
2023-01-19T19:18:51.297Z,41.00
2023-01-19T19:21:21.293Z,33.23
2023-01-19T19:23:53.953Z,42.67
2023-01-19T19:26:24.450Z,39.40
2023-01-19T19:28:52.727Z,36.23
2023-01-19T19:31:25.896Z,38.67
2023-01-19T19:33:55.437Z,42.47
2023-01-19T19:36:24.643Z,43.03
2023-01-19T19:38:52.482Z,40.40
2023-01-19T19:41:24.233Z,42.40
2023-01-19T19:43:52.419Z,66.47
2023-01-19T19:46:24.176Z,56.60
2023-01-19T19:48:53.660Z,56.70
2023-01-19T19:51:25.302Z,50.30
2023-01-19T19:53:56.641Z,50.23
2023-01-19T19:56:27.955Z,59.63
2023-01-19T19:58:58.956Z,59.10
2023-01-19T20:01:33.513Z,70.03
2023-01-19T20:04:06.747Z,75.27
2023-01-19T20:06:39.729Z,54.90
2023-01-19T20:09:10.784Z,53.70
2023-01-19T20:11:39.943Z,50.53
2023-01-19T20:14:10.759Z,49.27
2023-01-19T20:16:40.901Z,55.57
2023-01-19T20:19:08.861Z,59.07
2023-01-19T20:21:41.655Z,65.87
2023-01-19T20:24:13.831Z,94.03
2023-01-19T20:26:45.253Z,85.17
2023-01-19T20:29:13.241Z,78.27
2023-01-19T20:31:46.820Z,70.47
2023-01-19T20:34:17.987Z,73.03
2023-01-19T20:36:49.747Z,79.03
2023-01-19T20:39:18.652Z,63.63
2023-01-19T20:41:48.498Z,69.90
2023-01-19T20:44:20.102Z,87.47
2023-01-19T20:46:53.395Z,101.53
2023-01-19T20:49:22.794Z,85.53
2023-01-19T20:51:51.893Z,75.40
2023-01-19T20:54:24.486Z,67.43
2023-01-19T20:56:52.559Z,58.87
2023-01-19T20:59:20.394Z,54.70
2023-01-19T21:01:50.338Z,59.73
2023-01-19T21:04:18.885Z,55.03
2023-01-19T21:06:47.197Z,57.13
2023-01-19T21:09:14.960Z,57.80
2023-01-19T21:11:42.727Z,74.33
2023-01-19T21:14:10.703Z,89.43
2023-01-19T21:16:38.830Z,71.47
2023-01-19T21:19:08.045Z,55.30
2023-01-19T21:21:36.138Z,58.17
2023-01-19T21:24:04.761Z,54.90
2023-01-19T21:26:33.560Z,50.67
2023-01-19T21:29:04.102Z,52.13
2023-01-19T21:31:32.037Z,50.17
2023-01-19T21:34:00.043Z,47.20
2023-01-19T21:36:29.222Z,48.73
2023-01-19T21:39:00.388Z,52.83
2023-01-19T21:41:30.094Z,53.83
2023-01-19T21:44:00.132Z,50.73
2023-01-19T21:46:29.515Z,51.80
2023-01-19T21:48:59.019Z,50.83
2023-01-19T21:51:27.212Z,52.47
2023-01-19T21:53:59.427Z,54.20
2023-01-19T21:56:29.177Z,49.10
2023-01-19T21:58:59.475Z,54.83
2023-01-19T22:01:27.548Z,53.00
2023-01-19T22:03:57.493Z,53.13
2023-01-19T22:06:27.333Z,54.10
2023-01-19T22:08:58.304Z,50.77
2023-01-19T22:11:27.270Z,50.37
2023-01-19T22:13:55.126Z,58.43
2023-01-19T22:16:23.650Z,56.40
2023-01-19T22:18:54.116Z,55.73
2023-01-19T22:21:27.009Z,52.67
2023-01-19T22:23:59.151Z,50.60
2023-01-19T22:26:28.781Z,58.90
2023-01-19T22:28:59.420Z,52.83
2023-01-19T22:31:29.524Z,51.97
2023-01-19T22:33:57.749Z,52.30
2023-01-19T22:36:28.065Z,51.00
2023-01-19T22:39:00.189Z,55.67
2023-01-19T22:41:33.039Z,48.77
2023-01-19T22:44:03.321Z,49.77
2023-01-19T22:46:33.986Z,47.97
2023-01-19T22:49:02.797Z,54.90
2023-01-19T22:51:33.443Z,49.77
2023-01-19T22:54:03.239Z,46.77
2023-01-19T22:56:33.334Z,47.80
2023-01-19T22:59:02.362Z,52.83
2023-01-19T23:01:33.677Z,54.20
2023-01-19T23:04:19.198Z,51.87
